sensor_id;sensor_type;location;lat;lon;timestamp;pressure;altitude;pressure_sealevel;temperature
70123;BMP280;57489;37.404;24.920;2023-07-13T00:01:40;100345.72;;;30.45
70123;BMP280;57489;37.404;24.920;2023-07-13T00:06:41;100327.09;;;30.47
70123;BMP280;57489;37.404;24.920;2023-07-13T00:11:42;100324.38;;;30.47
70123;BMP280;57489;37.404;24.920;2023-07-13T00:16:43;100317.84;;;30.41
70123;BMP280;57489;37.404;24.920;2023-07-13T00:21:43;100317.81;;;30.44
70123;BMP280;57489;37.404;24.920;2023-07-13T00:26:44;100317.84;;;30.41
70123;BMP280;57489;37.404;24.920;2023-07-13T00:31:44;100317.81;;;30.44
70123;BMP280;57489;37.404;24.920;2023-07-13T00:36:45;100317.06;;;30.44
70123;BMP280;57489;37.404;24.920;2023-07-13T00:41:45;100310.13;;;30.36
70123;BMP280;57489;37.404;24.920;2023-07-13T00:46:46;100309.38;;;30.35
70123;BMP280;57489;37.404;24.920;2023-07-13T00:51:50;100310.13;;;30.36
70123;BMP280;57489;37.404;24.920;2023-07-13T00:56:53;100303.94;;;30.31
70123;BMP280;57489;37.404;24.920;2023-07-13T01:01:55;100293.13;;;30.35
70123;BMP280;57489;37.404;24.920;2023-07-13T01:06:56;100301.59;;;30.41
70123;BMP280;57489;37.404;24.920;2023-07-13T01:11:57;100295.44;;;30.37
70123;BMP280;57489;37.404;24.920;2023-07-13T01:16:58;100288.84;;;30.38
70123;BMP280;57489;37.404;24.920;2023-07-13T01:21:59;100302.38;;;30.38
70123;BMP280;57489;37.404;24.920;2023-07-13T01:26:59;100307.00;;;30.37
70123;BMP280;57489;37.404;24.920;2023-07-13T01:32:00;100302.00;;;30.36
70123;BMP280;57489;37.404;24.920;2023-07-13T01:37:00;100302.75;;;30.40
70123;BMP280;57489;37.404;24.920;2023-07-13T01:42:01;100308.56;;;30.35
70123;BMP280;57489;37.404;24.920;2023-07-13T01:47:02;100301.63;;;30.34
70123;BMP280;57489;37.404;24.920;2023-07-13T01:52:02;100297.72;;;30.42
70123;BMP280;57489;37.404;24.920;2023-07-13T01:57:03;100300.44;;;30.42
70123;BMP280;57489;37.404;24.920;2023-07-13T02:02:04;100303.88;;;30.46
70123;BMP280;57489;37.404;24.920;2023-07-13T02:07:04;100300.00;;;30.47
70123;BMP280;57489;37.404;24.920;2023-07-13T02:12:05;100293.88;;;30.39
70123;BMP280;57489;37.404;24.920;2023-07-13T02:17:06;100298.50;;;30.39
70123;BMP280;57489;37.404;24.920;2023-07-13T02:22:07;100297.34;;;30.40
70123;BMP280;57489;37.404;24.920;2023-07-13T02:27:07;100297.75;;;30.38
70123;BMP280;57489;37.404;24.920;2023-07-13T02:32:08;100313.97;;;30.42
70123;BMP280;57489;37.404;24.920;2023-07-13T02:37:08;100310.13;;;30.43
70123;BMP280;57489;37.404;24.920;2023-07-13T02:42:09;100318.63;;;30.38
70123;BMP280;57489;37.404;24.920;2023-07-13T02:47:09;100315.56;;;30.36
70123;BMP280;57489;37.404;24.920;2023-07-13T02:52:10;100316.69;;;30.35
70123;BMP280;57489;37.404;24.920;2023-07-13T02:57:10;100312.47;;;30.26
70123;BMP280;57489;37.404;24.920;2023-07-13T03:02:11;100317.88;;;30.34
70123;BMP280;57489;37.404;24.920;2023-07-13T03:07:11;100319.06;;;30.33
70123;BMP280;57489;37.404;24.920;2023-07-13T03:12:12;100310.94;;;30.33
70123;BMP280;57489;37.404;24.920;2023-07-13T03:17:12;100325.25;;;30.33
70123;BMP280;57489;37.404;24.920;2023-07-13T03:22:13;100319.44;;;30.31
70123;BMP280;57489;37.404;24.920;2023-07-13T03:27:13;100328.72;;;30.34
70123;BMP280;57489;37.404;24.920;2023-07-13T03:32:14;100332.59;;;30.33
70123;BMP280;57489;37.404;24.920;2023-07-13T03:37:14;100332.59;;;30.33
70123;BMP280;57489;37.404;24.920;2023-07-13T03:42:15;100334.50;;;30.36
70123;BMP280;57489;37.404;24.920;2023-07-13T03:47:15;100331.00;;;30.39
70123;BMP280;57489;37.404;24.920;2023-07-13T03:52:16;100329.50;;;30.30
70123;BMP280;57489;37.404;24.920;2023-07-13T03:57:16;100339.53;;;30.41
70123;BMP280;57489;37.404;24.920;2023-07-13T04:02:17;100331.75;;;30.50
70123;BMP280;57489;37.404;24.920;2023-07-13T04:07:17;100334.81;;;30.55
70123;BMP280;57489;37.404;24.920;2023-07-13T04:12:17;100337.88;;;30.61
70123;BMP280;57489;37.404;24.920;2023-07-13T04:17:18;100344.84;;;30.69
70123;BMP280;57489;37.404;24.920;2023-07-13T04:22:18;100344.75;;;30.80
70123;BMP280;57489;37.404;24.920;2023-07-13T04:27:19;100351.72;;;30.84
70123;BMP280;57489;37.404;24.920;2023-07-13T04:32:19;100364.06;;;30.92
70123;BMP280;57489;37.404;24.920;2023-07-13T04:37:20;100347.03;;;30.96
70123;BMP280;57489;37.404;24.920;2023-07-13T04:42:20;100346.59;;;31.04
70123;BMP280;57489;37.404;24.920;2023-07-13T04:47:21;100350.88;;;31.02
70123;BMP280;57489;37.404;24.920;2023-07-13T04:52:21;100355.06;;;31.10
70123;BMP280;57489;37.404;24.920;2023-07-13T04:57:21;100350.38;;;31.14
70123;BMP280;57489;37.404;24.920;2023-07-13T05:02:22;100351.59;;;31.13
70123;BMP280;57489;37.404;24.920;2023-07-13T05:07:22;100355.38;;;31.19
70123;BMP280;57489;37.404;24.920;2023-07-13T05:12:23;100350.72;;;31.23
70123;BMP280;57489;37.404;24.920;2023-07-13T05:17:23;100352.97;;;31.35
70123;BMP280;57489;37.404;24.920;2023-07-13T05:22:24;100361.41;;;31.44
70123;BMP280;57489;37.404;24.920;2023-07-13T05:27:24;100355.16;;;31.55
70123;BMP280;57489;37.404;24.920;2023-07-13T05:32:25;100351.22;;;31.59
70123;BMP280;57489;37.404;24.920;2023-07-13T05:37:25;100354.97;;;31.76
70123;BMP280;57489;37.404;24.920;2023-07-13T05:42:26;100363.06;;;31.79
70123;BMP280;57489;37.404;24.920;2023-07-13T05:47:26;100363.31;;;31.92
70123;BMP280;57489;37.404;24.920;2023-07-13T05:52:27;100365.19;;;32.02
70123;BMP280;57489;37.404;24.920;2023-07-13T05:57:27;100366.28;;;32.08
70123;BMP280;57489;37.404;24.920;2023-07-13T06:02:27;100365.38;;;32.19
70123;BMP280;57489;37.404;24.920;2023-07-13T06:07:28;100368.44;;;32.21
70123;BMP280;57489;37.404;24.920;2023-07-13T06:12:28;100369.13;;;32.32
70123;BMP280;57489;37.404;24.920;2023-07-13T06:17:29;100364.38;;;32.39
70123;BMP280;57489;37.404;24.920;2023-07-13T06:22:29;100372.75;;;32.52
70123;BMP280;57489;37.404;24.920;2023-07-13T06:27:30;100375.03;;;32.57
70123;BMP280;57489;37.404;24.920;2023-07-13T06:32:30;100372.75;;;32.52
70123;BMP280;57489;37.404;24.920;2023-07-13T06:37:31;100368.81;;;32.60
70123;BMP280;57489;37.404;24.920;2023-07-13T06:42:31;100369.41;;;32.71
70123;BMP280;57489;37.404;24.920;2023-07-13T06:47:32;100373.69;;;32.69
70123;BMP280;57489;37.404;24.920;2023-07-13T06:52:32;100367.69;;;32.85
70123;BMP280;57489;37.404;24.920;2023-07-13T06:57:33;100369.50;;;32.95
70123;BMP280;57489;37.404;24.920;2023-07-13T07:02:33;100374.38;;;33.03
70123;BMP280;57489;37.404;24.920;2023-07-13T07:07:33;100373.53;;;33.10
70123;BMP280;57489;37.404;24.920;2023-07-13T07:12:34;100375.78;;;33.15
70123;BMP280;57489;37.404;24.920;2023-07-13T07:17:34;100375.69;;;33.46
70123;BMP280;57489;37.404;24.920;2023-07-13T07:22:35;100379.44;;;33.55
70123;BMP280;57489;37.404;24.920;2023-07-13T07:27:35;100378.09;;;33.63
70123;BMP280;57489;37.404;24.920;2023-07-13T07:32:36;100384.16;;;33.71
70123;BMP280;57489;37.404;24.920;2023-07-13T07:37:36;100377.69;;;33.65
70123;BMP280;57489;37.404;24.920;2023-07-13T07:42:37;100387.84;;;33.84
70123;BMP280;57489;37.404;24.920;2023-07-13T07:47:37;100382.34;;;34.08
70123;BMP280;57489;37.404;24.920;2023-07-13T07:52:38;100384.31;;;34.27
70123;BMP280;57489;37.404;24.920;2023-07-13T07:57:38;100394.50;;;34.43
70123;BMP280;57489;37.404;24.920;2023-07-13T08:02:39;100395.97;;;34.47
70123;BMP280;57489;37.404;24.920;2023-07-13T08:07:40;100406.34;;;34.72
70123;BMP280;57489;37.404;24.920;2023-07-13T08:12:40;100389.06;;;35.11
70123;BMP280;57489;37.404;24.920;2023-07-13T08:17:41;100401.84;;;35.31
70123;BMP280;57489;37.404;24.920;2023-07-13T08:22:41;100411.41;;;35.22
70123;BMP280;57489;37.404;24.920;2023-07-13T08:27:42;100404.63;;;35.14
70123;BMP280;57489;37.404;24.920;2023-07-13T08:32:42;100413.69;;;35.40
70123;BMP280;57489;37.404;24.920;2023-07-13T08:37:42;100409.69;;;35.45
70123;BMP280;57489;37.404;24.920;2023-07-13T08:42:56;100399.81;;;35.51
70123;BMP280;57489;37.404;24.920;2023-07-13T08:48:04;100401.69;;;35.54
70123;BMP280;57489;37.404;24.920;2023-07-13T08:53:05;100396.81;;;35.74
70123;BMP280;57489;37.404;24.920;2023-07-13T08:58:17;100393.56;;;35.79
70123;BMP280;57489;37.404;24.920;2023-07-13T09:03:30;100402.66;;;35.60
70123;BMP280;57489;37.404;24.920;2023-07-13T09:08:59;100396.03;;;35.45
70123;BMP280;57489;37.404;24.920;2023-07-13T09:14:13;100401.66;;;35.38
70123;BMP280;57489;37.404;24.920;2023-07-13T09:19:23;100398.72;;;35.77
70123;BMP280;57489;37.404;24.920;2023-07-13T09:29:48;100379.97;;;35.92
70123;BMP280;57489;37.404;24.920;2023-07-13T09:34:52;100388.50;;;35.94
70123;BMP280;57489;37.404;24.920;2023-07-13T09:39:54;100395.63;;;35.30
70123;BMP280;57489;37.404;24.920;2023-07-13T09:44:56;100382.97;;;35.07
70123;BMP280;57489;37.404;24.920;2023-07-13T09:49:58;100387.31;;;35.50
70123;BMP280;57489;37.404;24.920;2023-07-13T09:54:59;100391.91;;;35.24
70123;BMP280;57489;37.404;24.920;2023-07-13T09:59:59;100377.03;;;35.25
70123;BMP280;57489;37.404;24.920;2023-07-13T10:05:05;100375.94;;;35.39
70123;BMP280;57489;37.404;24.920;2023-07-13T10:10:15;100370.28;;;35.75
70123;BMP280;57489;37.404;24.920;2023-07-13T10:15:24;100363.81;;;35.98
70123;BMP280;57489;37.404;24.920;2023-07-13T10:20:26;100358.75;;;35.67
70123;BMP280;57489;37.404;24.920;2023-07-13T10:25:31;100366.50;;;35.56
70123;BMP280;57489;37.404;24.920;2023-07-13T10:30:39;100358.75;;;35.38
70123;BMP280;57489;37.404;24.920;2023-07-13T10:35:43;100356.31;;;35.44
70123;BMP280;57489;37.404;24.920;2023-07-13T10:45:56;100348.91;;;35.57
70123;BMP280;57489;37.404;24.920;2023-07-13T10:50:57;100348.34;;;35.78
70123;BMP280;57489;37.404;24.920;2023-07-13T11:01:07;100350.50;;;35.25
70123;BMP280;57489;37.404;24.920;2023-07-13T11:11:38;100348.63;;;33.58
70123;BMP280;57489;37.404;24.920;2023-07-13T11:16:44;100348.72;;;33.31
70123;BMP280;57489;37.404;24.920;2023-07-13T11:22:12;100355.56;;;33.16
70123;BMP280;57489;37.404;24.920;2023-07-13T11:32:34;100354.44;;;32.87
70123;BMP280;57489;37.404;24.920;2023-07-13T11:37:35;100359.97;;;32.80
70123;BMP280;57489;37.404;24.920;2023-07-13T11:42:36;100353.94;;;32.68
70123;BMP280;57489;37.404;24.920;2023-07-13T11:47:40;100350.47;;;32.64
70123;BMP280;57489;37.404;24.920;2023-07-13T11:52:40;100344.81;;;32.52
70123;BMP280;57489;37.404;24.920;2023-07-13T11:58:00;100340.22;;;32.45
70123;BMP280;57489;37.404;24.920;2023-07-13T12:03:03;100334.78;;;32.45
70123;BMP280;57489;37.404;24.920;2023-07-13T12:08:10;100343.84;;;32.38
70123;BMP280;57489;37.404;24.920;2023-07-13T12:13:11;100337.69;;;32.31
70123;BMP280;57489;37.404;24.920;2023-07-13T12:18:31;100336.25;;;32.23
70123;BMP280;57489;37.404;24.920;2023-07-13T12:23:34;100338.66;;;32.13
70123;BMP280;57489;37.404;24.920;2023-07-13T12:28:38;100325.53;;;32.08
70123;BMP280;57489;37.404;24.920;2023-07-13T12:33:39;100326.75;;;32.04
70123;BMP280;57489;37.404;24.920;2023-07-13T12:38:39;100331.44;;;32.00
70123;BMP280;57489;37.404;24.920;2023-07-13T12:43:40;100329.91;;;31.99
70123;BMP280;57489;37.404;24.920;2023-07-13T12:48:42;100316.69;;;32.01
70123;BMP280;57489;37.404;24.920;2023-07-13T12:53:49;100317.53;;;31.94
70123;BMP280;57489;37.404;24.920;2023-07-13T12:58:55;100311.22;;;32.38
70123;BMP280;57489;37.404;24.920;2023-07-13T13:03:55;100310.53;;;32.31
70123;BMP280;57489;37.404;24.920;2023-07-13T13:08:58;100297.94;;;32.44
70123;BMP280;57489;37.404;24.920;2023-07-13T13:13:59;100287.34;;;32.53
70123;BMP280;57489;37.404;24.920;2023-07-13T13:19:25;100283.00;;;32.29
70123;BMP280;57489;37.404;24.920;2023-07-13T13:24:27;100278.94;;;32.44
70123;BMP280;57489;37.404;24.920;2023-07-13T13:29:28;100279.22;;;32.50
70123;BMP280;57489;37.404;24.920;2023-07-13T13:34:28;100262.16;;;32.49
70123;BMP280;57489;37.404;24.920;2023-07-13T13:39:36;100265.16;;;32.28
70123;BMP280;57489;37.404;24.920;2023-07-13T13:44:36;100259.59;;;32.65
70123;BMP280;57489;37.404;24.920;2023-07-13T13:49:37;100267.78;;;32.35
70123;BMP280;57489;37.404;24.920;2023-07-13T13:54:37;100258.63;;;32.52
70123;BMP280;57489;37.404;24.920;2023-07-13T13:59:38;100251.44;;;32.65
70123;BMP280;57489;37.404;24.920;2023-07-13T14:04:39;100252.69;;;32.34
70123;BMP280;57489;37.404;24.920;2023-07-13T14:09:39;100245.19;;;32.68
70123;BMP280;57489;37.404;24.920;2023-07-13T14:14:40;100242.84;;;32.43
70123;BMP280;57489;37.404;24.920;2023-07-13T14:19:40;100235.34;;;32.51
70123;BMP280;57489;37.404;24.920;2023-07-13T14:24:41;100243.03;;;32.56
70123;BMP280;57489;37.404;24.920;2023-07-13T14:29:41;100226.53;;;32.43
70123;BMP280;57489;37.404;24.920;2023-07-13T14:34:42;100236.75;;;32.59
70123;BMP280;57489;37.404;24.920;2023-07-13T14:39:44;100225.03;;;32.39
70123;BMP280;57489;37.404;24.920;2023-07-13T14:44:45;100216.81;;;32.42
70123;BMP280;57489;37.404;24.920;2023-07-13T14:49:45;100216.13;;;32.65
70123;BMP280;57489;37.404;24.920;2023-07-13T14:54:46;100202.22;;;32.33
70123;BMP280;57489;37.404;24.920;2023-07-13T14:59:47;100195.69;;;32.54
70123;BMP280;57489;37.404;24.920;2023-07-13T15:04:48;100192.16;;;32.30
70123;BMP280;57489;37.404;24.920;2023-07-13T15:09:48;100186.69;;;32.60
70123;BMP280;57489;37.404;24.920;2023-07-13T15:14:49;100189.50;;;33.00
70123;BMP280;57489;37.404;24.920;2023-07-13T15:19:49;100186.19;;;33.12
70123;BMP280;57489;37.404;24.920;2023-07-13T15:24:50;100177.53;;;33.17
70123;BMP280;57489;37.404;24.920;2023-07-13T15:29:50;100177.28;;;33.31
70123;BMP280;57489;37.404;24.920;2023-07-13T15:34:51;100184.97;;;33.36
70123;BMP280;57489;37.404;24.920;2023-07-13T15:39:51;100179.50;;;33.36
70123;BMP280;57489;37.404;24.920;2023-07-13T15:44:52;100169.31;;;33.41
70123;BMP280;57489;37.404;24.920;2023-07-13T15:49:52;100165.34;;;33.45
70123;BMP280;57489;37.404;24.920;2023-07-13T15:54:53;100169.25;;;33.44
70123;BMP280;57489;37.404;24.920;2023-07-13T15:59:53;100165.34;;;33.45
70123;BMP280;57489;37.404;24.920;2023-07-13T16:04:54;100165.75;;;33.44
70123;BMP280;57489;37.404;24.920;2023-07-13T16:09:54;100158.28;;;33.48
70123;BMP280;57489;37.404;24.920;2023-07-13T16:14:54;100165.25;;;33.49
70123;BMP280;57489;37.404;24.920;2023-07-13T16:19:55;100162.88;;;33.51
70123;BMP280;57489;37.404;24.920;2023-07-13T16:24:55;100166.03;;;33.49
70123;BMP280;57489;37.404;24.920;2023-07-13T16:29:56;100166.03;;;33.49
70123;BMP280;57489;37.404;24.920;2023-07-13T16:34:56;100173.09;;;33.47
70123;BMP280;57489;37.404;24.920;2023-07-13T16:39:58;100170.00;;;33.45
70123;BMP280;57489;37.404;24.920;2023-07-13T16:44:59;100175.53;;;33.41
70123;BMP280;57489;37.404;24.920;2023-07-13T16:50:00;100186.47;;;33.37
70123;BMP280;57489;37.404;24.920;2023-07-13T16:55:00;100190.03;;;33.34
70123;BMP280;57489;37.404;24.920;2023-07-13T17:00:01;100194.38;;;33.32
70123;BMP280;57489;37.404;24.920;2023-07-13T17:05:02;100194.44;;;33.28
70123;BMP280;57489;37.404;24.920;2023-07-13T17:10:06;100191.41;;;33.23
70123;BMP280;57489;37.404;24.920;2023-07-13T17:15:13;100186.03;;;33.19
70123;BMP280;57489;37.404;24.920;2023-07-13T17:20:22;100187.16;;;33.02
70123;BMP280;57489;37.404;24.920;2023-07-13T17:25:23;100191.31;;;32.36
70123;BMP280;57489;37.404;24.920;2023-07-13T17:30:24;100189.28;;;32.13
70123;BMP280;57489;37.404;24.920;2023-07-13T17:35:28;100185.75;;;31.86
70123;BMP280;57489;37.404;24.920;2023-07-13T17:40:30;100178.16;;;31.74
70123;BMP280;57489;37.404;24.920;2023-07-13T17:45:31;100183.78;;;31.56
70123;BMP280;57489;37.404;24.920;2023-07-13T17:50:33;100194.31;;;31.50
70123;BMP280;57489;37.404;24.920;2023-07-13T17:55:34;100182.44;;;31.37
70123;BMP280;57489;37.404;24.920;2023-07-13T18:00:37;100180.31;;;31.18
70123;BMP280;57489;37.404;24.920;2023-07-13T18:05:38;100182.66;;;31.12
70123;BMP280;57489;37.404;24.920;2023-07-13T18:10:40;100187.31;;;31.12
70123;BMP280;57489;37.404;24.920;2023-07-13T18:15:41;100185.09;;;31.00
70123;BMP280;57489;37.404;24.920;2023-07-13T18:20:41;100185.94;;;30.93
70123;BMP280;57489;37.404;24.920;2023-07-13T18:25:42;100186.94;;;31.13
70123;BMP280;57489;37.404;24.920;2023-07-13T18:30:53;100192.97;;;31.28
70123;BMP280;57489;37.404;24.920;2023-07-13T18:35:54;100189.84;;;30.88
70123;BMP280;57489;37.404;24.920;2023-07-13T18:40:55;100189.66;;;31.10
70123;BMP280;57489;37.404;24.920;2023-07-13T18:45:58;100192.34;;;31.55
70123;BMP280;57489;37.404;24.920;2023-07-13T18:50:59;100197.97;;;31.71
70123;BMP280;57489;37.404;24.920;2023-07-13T18:56:00;100195.81;;;31.89
70123;BMP280;57489;37.404;24.920;2023-07-13T19:01:02;100207.59;;;32.09
70123;BMP280;57489;37.404;24.920;2023-07-13T19:06:03;100194.59;;;32.21
70123;BMP280;57489;37.404;24.920;2023-07-13T19:11:04;100203.03;;;32.30
70123;BMP280;57489;37.404;24.920;2023-07-13T19:16:04;100198.22;;;32.41
70123;BMP280;57489;37.404;24.920;2023-07-13T19:21:16;100198.13;;;32.48
70123;BMP280;57489;37.404;24.920;2023-07-13T19:26:29;100208.53;;;32.53
70123;BMP280;57489;37.404;24.920;2023-07-13T19:31:33;100206.50;;;32.34
70123;BMP280;57489;37.404;24.920;2023-07-13T19:36:35;100210.81;;;32.28
70123;BMP280;57489;37.404;24.920;2023-07-13T19:41:36;100216.66;;;32.26
70123;BMP280;57489;37.404;24.920;2023-07-13T19:46:37;100212.56;;;32.15
70123;BMP280;57489;37.404;24.920;2023-07-13T19:51:37;100206.94;;;32.29
70123;BMP280;57489;37.404;24.920;2023-07-13T19:56:38;100209.59;;;32.32
70123;BMP280;57489;37.404;24.920;2023-07-13T20:01:39;100197.31;;;32.21
70123;BMP280;57489;37.404;24.920;2023-07-13T20:06:39;100206.41;;;32.10
70123;BMP280;57489;37.404;24.920;2023-07-13T20:11:40;100200.25;;;32.06
70123;BMP280;57489;37.404;24.920;2023-07-13T20:16:40;100193.06;;;31.93
70123;BMP280;57489;37.404;24.920;2023-07-13T20:21:41;100193.91;;;31.86
70123;BMP280;57489;37.404;24.920;2023-07-13T20:26:43;100200.50;;;31.85
70123;BMP280;57489;37.404;24.920;2023-07-13T20:31:45;100201.38;;;31.78
70123;BMP280;57489;37.404;24.920;2023-07-13T20:36:47;100202.13;;;31.79
70123;BMP280;57489;37.404;24.920;2023-07-13T20:41:48;100195.19;;;31.78
70123;BMP280;57489;37.404;24.920;2023-07-13T20:46:49;100201.03;;;31.73
70123;BMP280;57489;37.404;24.920;2023-07-13T20:51:49;100197.91;;;31.74
70123;BMP280;57489;37.404;24.920;2023-07-13T20:56:50;100192.56;;;31.71
70123;BMP280;57489;37.404;24.920;2023-07-13T21:01:50;100200.72;;;31.67
70123;BMP280;57489;37.404;24.920;2023-07-13T21:06:51;100198.44;;;31.66
70123;BMP280;57489;37.404;24.920;2023-07-13T21:11:51;100200.75;;;31.64
70123;BMP280;57489;37.404;24.920;2023-07-13T21:16:52;100200.31;;;31.69
70123;BMP280;57489;37.404;24.920;2023-07-13T21:21:52;100199.94;;;31.67
70123;BMP280;57489;37.404;24.920;2023-07-13T21:26:54;100191.28;;;31.41
70123;BMP280;57489;37.404;24.920;2023-07-13T21:31:55;100183.81;;;31.52
70123;BMP280;57489;37.404;24.920;2023-07-13T21:36:55;100190.75;;;31.57
70123;BMP280;57489;37.404;24.920;2023-07-13T21:41:56;100185.25;;;31.64
70123;BMP280;57489;37.404;24.920;2023-07-13T21:46:57;100182.47;;;31.71
70123;BMP280;57489;37.404;24.920;2023-07-13T21:51:58;100179.66;;;31.78
70123;BMP280;57489;37.404;24.920;2023-07-13T21:56:59;100178.16;;;31.74
70123;BMP280;57489;37.404;24.920;2023-07-13T22:01:59;100175.78;;;31.79
70123;BMP280;57489;37.404;24.920;2023-07-13T22:07:00;100175.81;;;31.76
70123;BMP280;57489;37.404;24.920;2023-07-13T22:12:01;100171.22;;;31.69
70123;BMP280;57489;37.404;24.920;2023-07-13T22:17:01;100168.81;;;31.78
70123;BMP280;57489;37.404;24.920;2023-07-13T22:22:02;100159.53;;;31.76
70123;BMP280;57489;37.404;24.920;2023-07-13T22:27:04;100165.88;;;31.66
70123;BMP280;57489;37.404;24.920;2023-07-13T22:32:07;100148.38;;;31.67
70123;BMP280;57489;37.404;24.920;2023-07-13T22:37:09;100149.47;;;31.73
70123;BMP280;57489;37.404;24.920;2023-07-13T22:42:09;100143.41;;;31.62
70123;BMP280;57489;37.404;24.920;2023-07-13T22:47:16;100133.91;;;31.46
70123;BMP280;57489;37.404;24.920;2023-07-13T22:52:16;100131.75;;;31.65
70123;BMP280;57489;37.404;24.920;2023-07-13T22:57:17;100119.75;;;31.62
70123;BMP280;57489;37.404;24.920;2023-07-13T23:02:18;100117.50;;;31.53
70123;BMP280;57489;37.404;24.920;2023-07-13T23:07:18;100107.84;;;31.52
70123;BMP280;57489;37.404;24.920;2023-07-13T23:12:18;100113.34;;;31.45
70123;BMP280;57489;37.404;24.920;2023-07-13T23:17:19;100103.34;;;31.39
70123;BMP280;57489;37.404;24.920;2023-07-13T23:22:26;100103.47;;;31.28
70123;BMP280;57489;37.404;24.920;2023-07-13T23:27:26;100102.72;;;31.28
70123;BMP280;57489;37.404;24.920;2023-07-13T23:32:27;100097.38;;;31.20
70123;BMP280;57489;37.404;24.920;2023-07-13T23:37:27;100084.19;;;31.23
70123;BMP280;57489;37.404;24.920;2023-07-13T23:42:28;100081.94;;;31.14
70123;BMP280;57489;37.404;24.920;2023-07-13T23:47:28;100082.63;;;31.21
70123;BMP280;57489;37.404;24.920;2023-07-13T23:52:28;100075.78;;;31.10
70123;BMP280;57489;37.404;24.920;2023-07-13T23:57:29;100061.81;;;31.15
